Rhapsody Of The Seas — C6UA2 — position and weather

sailwx.info

Track history (hours):
 
Tides and Currents Weather Stations Pressure Air Temp Water Temp Dewpoint Dewpoint Depression Visibility Wind Speed Wind Dir Waves Ship Positions

Rhapsody Of The Seas

Last reported at 2019-Jul-20 02:00 UTC. Time now 2019-Jul-20 14:20 UTC.
Position N 43°06' E 015°12'.

Type: Passenger vessel. MMSI: 311805000.

Wind from 240 at 9 knots

Barometer 1020.9 mb
Air temperature 24.0 ° C
Visibility: greater than 5.4 NM
Water temperature 28.0 ° C

Date/timePositionNaut miles runAvg speedWind from/ knotsBaromVisibWave heightAir tempDewpointWater temp
2019-Jul-20 02:00N 43°06' E 015°12'116.3 240 / 91020.9 5.4 24.0 28.0
2019-Jul-20 01:55N 43°07' E 015°11'922.2
2019-Jul-20 01:30N 43°14' E 015°04'1122.2
2019-Jul-20 01:00N 43°23' E 014°53'1122.2
2019-Jul-20 00:30N 43°31' E 014°44'1122.1
2019-Jul-20 00:00N 43°40' E 014°33'1922.0
2019-Jul-19 23:09N 43°54' E 014°16'322.1
2019-Jul-19 23:01N 43°56' E 014°14'1122.1
2019-Jul-19 22:30N 44°05' E 014°04'1222.0
2019-Jul-19 21:57N 44°15' E 013°55'1122.0
2019-Jul-19 21:29N 44°24' E 013°46'1022.2
2019-Jul-19 21:00N 44°32' E 013°39'1122.1
2019-Jul-19 20:30N 44°42' E 013°30'1019.3
2019-Jul-19 20:01N 44°50' E 013°23'1121.2
2019-Jul-19 19:30N 44°58' E 013°13'1121.3
2019-Jul-19 19:00N 45°05' E 013°02'1121.5
2019-Jul-19 18:31N 45°12' E 012°50'1121.5
2019-Jul-19 18:00N 45°19' E 012°39'816.9
2019-Jul-19 17:30N 45°24' E 012°29'5 9.5
2019-Jul-19 17:01N 45°26' E 012°23'2 4.1
2019-Jul-19 16:30N 45°26' E 012°20'2 3.2
2019-Jul-19 16:01N 45°26' E 012°18'0 0.7
2019-Jul-19 15:30N 45°26' E 012°18'0 0.0
2019-Jul-19 15:00N 45°26' E 012°18'0 0.0
2019-Jul-19 14:30N 45°26' E 012°18'0 0.0
2019-Jul-19 14:00N 45°26' E 012°18'0 0.0
2019-Jul-19 13:30N 45°26' E 012°18'0 0.0
2019-Jul-19 13:00N 45°26' E 012°18'0 0.0
2019-Jul-19 12:30N 45°26' E 012°18'0 0.0
2019-Jul-19 12:00N 45°26' E 012°18'0 0.0
2019-Jul-19 11:30N 45°26' E 012°18'0 0.0
2019-Jul-19 11:00N 45°26' E 012°18'0 0.0
2019-Jul-19 10:30N 45°26' E 012°18'0 0.0
2019-Jul-19 10:00N 45°26' E 012°18'0 0.0
2019-Jul-19 09:30N 45°26' E 012°18'0 0.0
2019-Jul-19 09:00N 45°26' E 012°18'0 0.0
2019-Jul-19 08:30N 45°26' E 012°18'0 0.0
2019-Jul-19 08:00N 45°26' E 012°18'0 0.0
2019-Jul-19 07:30N 45°26' E 012°18'0 0.0
2019-Jul-19 07:00N 45°26' E 012°18'0 0.0
2019-Jul-19 06:30N 45°26' E 012°18'0 0.0
2019-Jul-19 06:00N 45°26' E 012°18'0 0.0
2019-Jul-19 05:30N 45°26' E 012°18'0 0.0
2019-Jul-19 05:00N 45°26' E 012°18'0 0.2
2019-Jul-19 04:31N 45°26' E 012°18'2 3.4
2019-Jul-19 04:01N 45°26' E 012°21'2 4.2
2019-Jul-19 03:30N 45°26' E 012°24'4 8.0
2019-Jul-19 03:00N 45°24' E 012°29'612.1
2019-Jul-19 02:30N 45°21' E 012°36'714.2
2019-Jul-19 02:00N 45°17' E 012°44'714.4
2019-Jul-19 01:30N 45°12' E 012°52'714.9
2019-Jul-19 01:00N 45°07' E 013°00'815.1
2019-Jul-19 00:30N 45°03' E 013°08'714.9
2019-Jul-19 00:00N 44°58' E 013°17'5326.6
2019-Jul-19 00:00N 44°54' E 013°12'918.0 280 / 81017.9 5.4 24.0 26.0
2019-Jul-18 23:30N 44°53' E 013°24'715.0
2019-Jul-18 23:00N 44°47' E 013°30'714.5
2019-Jul-18 22:30N 44°41' E 013°36'714.9
2019-Jul-18 22:00N 44°35' E 013°42'815.0
2019-Jul-18 21:30N 44°28' E 013°48'715.0
2019-Jul-18 21:00N 44°22' E 013°54'714.9
2019-Jul-18 20:30N 44°16' E 013°59'815.1
2019-Jul-18 20:00N 44°09' E 014°05'815.2
2019-Jul-18 19:30N 44°03' E 014°12'815.5
2019-Jul-18 19:00N 43°57' E 014°19'4716.0
2019-Jul-18 16:06N 43°21' E 014°59'2116.5
2019-Jul-18 14:48N 43°05' E 015°18'516.7
2019-Jul-18 14:29N 43°01' E 015°23'20718.0
2019-Jul-18 03:00N 40°24' E 018°24'27611.0 290 / 231014.9 5.4 23.0 26.0
2019-Jul-17 02:00N 36°36' E 021°42'11012.4 010 / 181007.8 5.4 23.0 24.0
2019-Jul-16 17:07N 37°27' E 023°44'219.4
2019-Jul-16 17:00N 37°29' E 023°44'1019.5
2019-Jul-16 16:29N 37°39' E 023°42'919.9
2019-Jul-16 16:00N 37°48' E 023°38'816.1
2019-Jul-16 15:30N 37°56' E 023°37'1 2.2
2019-Jul-16 14:59N 37°56' E 023°38'0 0.0
2019-Jul-16 14:29N 37°56' E 023°38'0 0.0
2019-Jul-16 13:56N 37°56' E 023°38'0 0.0
2019-Jul-16 13:29N 37°56' E 023°38'0 0.0
2019-Jul-16 12:59N 37°56' E 023°38'0 0.0
2019-Jul-16 12:29N 37°56' E 023°38'0 0.0
2019-Jul-16 11:59N 37°56' E 023°38'0 0.0
2019-Jul-16 11:29N 37°56' E 023°38'0 0.0
2019-Jul-16 10:59N 37°56' E 023°38'0 0.0
2019-Jul-16 10:29N 37°56' E 023°38'0 0.0
2019-Jul-16 09:59N 37°56' E 023°38'0 0.0
2019-Jul-16 09:29N 37°56' E 023°38'0 0.0
2019-Jul-16 08:59N 37°56' E 023°38'0 0.0
2019-Jul-16 08:26N 37°56' E 023°38'0 0.0
2019-Jul-16 07:59N 37°56' E 023°38'0 0.0
2019-Jul-16 07:29N 37°56' E 023°38'0 0.0
2019-Jul-16 06:59N 37°56' E 023°38'0 0.0
2019-Jul-16 06:29N 37°56' E 023°38'0 0.0
2019-Jul-16 05:59N 37°56' E 023°38'0 0.0
2019-Jul-16 05:29N 37°56' E 023°38'0 0.0
2019-Jul-16 04:59N 37°56' E 023°38'0 0.0
2019-Jul-16 04:29N 37°56' E 023°38'0 0.0
2019-Jul-16 03:56N 37°56' E 023°38'0 0.0
2019-Jul-16 03:29N 37°56' E 023°38'0 0.0
2019-Jul-16 02:59N 37°56' E 023°38'0 0.0
2019-Jul-16 02:29N 37°56' E 023°38'0 0.1
2019-Jul-16 02:00N 37°56' E 023°38'2 3.4
2019-Jul-16 01:30N 37°55' E 023°36'815.8
2019-Jul-16 01:01N 37°48' E 023°40'917.6
2019-Jul-16 00:30N 37°40' E 023°45'918.0
2019-Jul-16 00:01N 37°31' E 023°45'3919.4
2019-Jul-15 22:00N 36°54' E 023°30'31515.7 090 / 161011.9 5.4 24.0 23.0
2019-Jul-15 02:00N 40°24' E 018°30'25511.1 360 / 141011.9 5.4 23.0 26.0
2019-Jul-14 03:00N 43°42' E 014°54'8320.1 080 / 91014.9 5.4 23.0 23.0
2019-Jul-13 22:52N 44°40' E 013°31'822.4
2019-Jul-13 22:30N 44°47' E 013°25'1122.4
2019-Jul-13 22:00N 44°56' E 013°16'1122.3
2019-Jul-13 21:31N 45°03' E 013°05'1122.2
2019-Jul-13 21:00N 45°10' E 012°52'1121.9
2019-Jul-13 20:30N 45°17' E 012°41'917.9
2019-Jul-13 20:00N 45°23' E 012°30'5 9.5
2019-Jul-13 19:30N 45°26' E 012°25'3 5.0
2019-Jul-13 19:00N 45°26' E 012°21'2 4.3
2019-Jul-13 18:31N 45°26' E 012°18'0 0.9
2019-Jul-13 17:58N 45°26' E 012°18'0 0.0
2019-Jul-13 17:28N 45°26' E 012°18'0 0.0
2019-Jul-13 16:58N 45°26' E 012°18'0 0.0
2019-Jul-13 16:28N 45°26' E 012°18'0 0.0
2019-Jul-13 15:58N 45°26' E 012°18'0 0.0
2019-Jul-13 15:28N 45°26' E 012°18'0 0.0
2019-Jul-13 14:58N 45°26' E 012°18'0 0.0
2019-Jul-13 14:28N 45°26' E 012°18'0 0.0
2019-Jul-13 13:58N 45°26' E 012°18'0 0.0
2019-Jul-13 13:25N 45°26' E 012°18'0 0.0
2019-Jul-13 12:58N 45°26' E 012°18'0 0.0
2019-Jul-13 12:28N 45°26' E 012°18'0 0.0
2019-Jul-13 11:58N 45°26' E 012°18'0 0.0
2019-Jul-13 11:28N 45°26' E 012°18'0 0.0
2019-Jul-13 10:58N 45°26' E 012°18'0 0.0
2019-Jul-13 10:28N 45°26' E 012°18'0 0.0
2019-Jul-13 09:55N 45°26' E 012°18'0 0.0
2019-Jul-13 09:28N 45°26' E 012°18'0 0.0
2019-Jul-13 08:55N 45°26' E 012°18'0 0.0
2019-Jul-13 08:28N 45°26' E 012°18'0 0.0
2019-Jul-13 07:58N 45°26' E 012°18'0 0.0
2019-Jul-13 07:28N 45°26' E 012°18'0 0.0
2019-Jul-13 06:58N 45°26' E 012°18'0 0.0
2019-Jul-13 06:28N 45°26' E 012°18'0 0.0
2019-Jul-13 05:58N 45°26' E 012°18'0 0.0
2019-Jul-13 05:28N 45°26' E 012°18'0 0.0
2019-Jul-13 04:58N 45°26' E 012°18'0 0.0
2019-Jul-13 04:28N 45°26' E 012°18'0 0.0
2019-Jul-13 03:58N 45°26' E 012°18'0 0.0
2019-Jul-13 03:28N 45°26' E 012°18'0 0.0
2019-Jul-13 02:58N 45°26' E 012°18'0 0.0
2019-Jul-13 02:30N 45°26' E 012°18'1 2.0
2019-Jul-13 02:00N 45°26' E 012°20'2 4.3
2019-Jul-13 01:30N 45°26' E 012°23'3 5.8
2019-Jul-13 01:00N 45°25' E 012°27'4 8.4
2019-Jul-13 00:30N 45°23' E 012°32'1 1.4
2019-Jul-13 00:00N 45°23' E 012°32'2 4.9
2019-Jul-12 23:31N 45°25' E 012°29'3 6.4
2019-Jul-12 23:00N 45°22' E 012°32'817.1
2019-Jul-12 22:31N 45°18' E 012°42'917.5
2019-Jul-12 22:01N 45°12' E 012°52'816.7
2019-Jul-12 21:31N 45°07' E 013°01'917.1
2019-Jul-12 21:01N 45°02' E 013°11'917.9
2019-Jul-12 20:31N 44°56' E 013°21'1019.7
2019-Jul-12 20:01N 44°48' E 013°29'1019.8
2019-Jul-12 19:31N 44°40' E 013°37'1019.9
2019-Jul-12 19:01N 44°32' E 013°45'1020.0
2019-Jul-12 18:31N 44°23' E 013°52'1020.0
2019-Jul-12 18:01N 44°15' E 013°59'1220.0
2019-Jul-12 17:24N 44°05' E 014°10'30319.6
2019-Jul-12 02:00N 40°12' E 018°30'30012.0 360 / 241014.9 5.4 24.0 24.0
2019-Jul-11 01:00N 36°18' E 022°30'3515.2 280 / 241008.8 5.4 26.0 24.0
2019-Jul-10 22:41N 36°23' E 023°13'3414.3
2019-Jul-10 20:18N 36°19' E 023°55'714.4
2019-Jul-10 19:50N 36°19' E 024°03'614.3
2019-Jul-10 19:26N 36°19' E 024°10'39 2.4
2019-Jul-10 03:00N 36°48' E 024°42'   280 / 121011.8 1.1 26.0 28.0
Track history (hours):
 
Tides and Currents Weather Stations Pressure Air Temp Water Temp Dewpoint Dewpoint Depression Visibility Wind Speed Wind Dir Waves Ship Positions

Rhapsody Of The Seas

Last reported at 2019-Jul-20 02:00 UTC. Time now 2019-Jul-20 14:20 UTC.
Position N 43°06' E 015°12'.

Type: Passenger vessel. MMSI: 311805000.

Wind from 240 at 9 knots

Barometer 1020.9 mb
Air temperature 24.0 ° C
Visibility: greater than 5.4 NM
Water temperature 28.0 ° C

Date/timePositionNaut miles runAvg speedWind from/ knotsBaromVisibWave heightAir tempDewpointWater temp
2019-Jul-20 02:00N 43°06' E 015°12'116.3 240 / 91020.9 5.4 24.0 28.0
2019-Jul-20 01:55N 43°07' E 015°11'922.2
2019-Jul-20 01:30N 43°14' E 015°04'1122.2
2019-Jul-20 01:00N 43°23' E 014°53'1122.2
2019-Jul-20 00:30N 43°31' E 014°44'1122.1
2019-Jul-20 00:00N 43°40' E 014°33'1922.0
2019-Jul-19 23:09N 43°54' E 014°16'322.1
2019-Jul-19 23:01N 43°56' E 014°14'1122.1
2019-Jul-19 22:30N 44°05' E 014°04'1222.0
2019-Jul-19 21:57N 44°15' E 013°55'1122.0
2019-Jul-19 21:29N 44°24' E 013°46'1022.2
2019-Jul-19 21:00N 44°32' E 013°39'1122.1
2019-Jul-19 20:30N 44°42' E 013°30'1019.3
2019-Jul-19 20:01N 44°50' E 013°23'1121.2
2019-Jul-19 19:30N 44°58' E 013°13'1121.3
2019-Jul-19 19:00N 45°05' E 013°02'1121.5
2019-Jul-19 18:31N 45°12' E 012°50'1121.5
2019-Jul-19 18:00N 45°19' E 012°39'816.9
2019-Jul-19 17:30N 45°24' E 012°29'5 9.5
2019-Jul-19 17:01N 45°26' E 012°23'2 4.1
2019-Jul-19 16:30N 45°26' E 012°20'2 3.2
2019-Jul-19 16:01N 45°26' E 012°18'0 0.7
2019-Jul-19 15:30N 45°26' E 012°18'0 0.0
2019-Jul-19 15:00N 45°26' E 012°18'0 0.0
2019-Jul-19 14:30N 45°26' E 012°18'0 0.0
2019-Jul-19 14:00N 45°26' E 012°18'0 0.0
2019-Jul-19 13:30N 45°26' E 012°18'0 0.0
2019-Jul-19 13:00N 45°26' E 012°18'0 0.0
2019-Jul-19 12:30N 45°26' E 012°18'0 0.0
2019-Jul-19 12:00N 45°26' E 012°18'0 0.0
2019-Jul-19 11:30N 45°26' E 012°18'0 0.0
2019-Jul-19 11:00N 45°26' E 012°18'0 0.0
2019-Jul-19 10:30N 45°26' E 012°18'0 0.0
2019-Jul-19 10:00N 45°26' E 012°18'0 0.0
2019-Jul-19 09:30N 45°26' E 012°18'0 0.0
2019-Jul-19 09:00N 45°26' E 012°18'0 0.0
2019-Jul-19 08:30N 45°26' E 012°18'0 0.0
2019-Jul-19 08:00N 45°26' E 012°18'0 0.0
2019-Jul-19 07:30N 45°26' E 012°18'0 0.0
2019-Jul-19 07:00N 45°26' E 012°18'0 0.0
2019-Jul-19 06:30N 45°26' E 012°18'0 0.0
2019-Jul-19 06:00N 45°26' E 012°18'0 0.0
2019-Jul-19 05:30N 45°26' E 012°18'0 0.0
2019-Jul-19 05:00N 45°26' E 012°18'0 0.2
2019-Jul-19 04:31N 45°26' E 012°18'2 3.4
2019-Jul-19 04:01N 45°26' E 012°21'2 4.2
2019-Jul-19 03:30N 45°26' E 012°24'4 8.0
2019-Jul-19 03:00N 45°24' E 012°29'612.1
2019-Jul-19 02:30N 45°21' E 012°36'714.2
2019-Jul-19 02:00N 45°17' E 012°44'714.4
2019-Jul-19 01:30N 45°12' E 012°52'714.9
2019-Jul-19 01:00N 45°07' E 013°00'815.1
2019-Jul-19 00:30N 45°03' E 013°08'714.9
2019-Jul-19 00:00N 44°58' E 013°17'5326.6
2019-Jul-19 00:00N 44°54' E 013°12'918.0 280 / 81017.9 5.4 24.0 26.0
2019-Jul-18 23:30N 44°53' E 013°24'715.0
2019-Jul-18 23:00N 44°47' E 013°30'714.5
2019-Jul-18 22:30N 44°41' E 013°36'714.9
2019-Jul-18 22:00N 44°35' E 013°42'815.0
2019-Jul-18 21:30N 44°28' E 013°48'715.0
2019-Jul-18 21:00N 44°22' E 013°54'714.9
2019-Jul-18 20:30N 44°16' E 013°59'815.1
2019-Jul-18 20:00N 44°09' E 014°05'815.2
2019-Jul-18 19:30N 44°03' E 014°12'815.5
2019-Jul-18 19:00N 43°57' E 014°19'4716.0
2019-Jul-18 16:06N 43°21' E 014°59'2116.5
2019-Jul-18 14:48N 43°05' E 015°18'516.7
2019-Jul-18 14:29N 43°01' E 015°23'20718.0
2019-Jul-18 03:00N 40°24' E 018°24'27611.0 290 / 231014.9 5.4 23.0 26.0
2019-Jul-17 02:00N 36°36' E 021°42'11012.4 010 / 181007.8 5.4 23.0 24.0
2019-Jul-16 17:07N 37°27' E 023°44'219.4
2019-Jul-16 17:00N 37°29' E 023°44'1019.5
2019-Jul-16 16:29N 37°39' E 023°42'919.9
2019-Jul-16 16:00N 37°48' E 023°38'816.1
2019-Jul-16 15:30N 37°56' E 023°37'1 2.2
2019-Jul-16 14:59N 37°56' E 023°38'0 0.0
2019-Jul-16 14:29N 37°56' E 023°38'0 0.0
2019-Jul-16 13:56N 37°56' E 023°38'0 0.0
2019-Jul-16 13:29N 37°56' E 023°38'0 0.0
2019-Jul-16 12:59N 37°56' E 023°38'0 0.0
2019-Jul-16 12:29N 37°56' E 023°38'0 0.0
2019-Jul-16 11:59N 37°56' E 023°38'0 0.0
2019-Jul-16 11:29N 37°56' E 023°38'0 0.0
2019-Jul-16 10:59N 37°56' E 023°38'0 0.0
2019-Jul-16 10:29N 37°56' E 023°38'0 0.0
2019-Jul-16 09:59N 37°56' E 023°38'0 0.0
2019-Jul-16 09:29N 37°56' E 023°38'0 0.0
2019-Jul-16 08:59N 37°56' E 023°38'0 0.0
2019-Jul-16 08:26N 37°56' E 023°38'0 0.0
2019-Jul-16 07:59N 37°56' E 023°38'0 0.0
2019-Jul-16 07:29N 37°56' E 023°38'0 0.0
2019-Jul-16 06:59N 37°56' E 023°38'0 0.0
2019-Jul-16 06:29N 37°56' E 023°38'0 0.0
2019-Jul-16 05:59N 37°56' E 023°38'0 0.0
2019-Jul-16 05:29N 37°56' E 023°38'0 0.0
2019-Jul-16 04:59N 37°56' E 023°38'0 0.0
2019-Jul-16 04:29N 37°56' E 023°38'0 0.0
2019-Jul-16 03:56N 37°56' E 023°38'0 0.0
2019-Jul-16 03:29N 37°56' E 023°38'0 0.0
2019-Jul-16 02:59N 37°56' E 023°38'0 0.0
2019-Jul-16 02:29N 37°56' E 023°38'0 0.1
2019-Jul-16 02:00N 37°56' E 023°38'2 3.4
2019-Jul-16 01:30N 37°55' E 023°36'815.8
2019-Jul-16 01:01N 37°48' E 023°40'917.6
2019-Jul-16 00:30N 37°40' E 023°45'918.0
2019-Jul-16 00:01N 37°31' E 023°45'3919.4
2019-Jul-15 22:00N 36°54' E 023°30'31515.7 090 / 161011.9 5.4 24.0 23.0
2019-Jul-15 02:00N 40°24' E 018°30'25511.1 360 / 141011.9 5.4 23.0 26.0
2019-Jul-14 03:00N 43°42' E 014°54'8320.1 080 / 91014.9 5.4 23.0 23.0
2019-Jul-13 22:52N 44°40' E 013°31'822.4
2019-Jul-13 22:30N 44°47' E 013°25'1122.4
2019-Jul-13 22:00N 44°56' E 013°16'1122.3
2019-Jul-13 21:31N 45°03' E 013°05'1122.2
2019-Jul-13 21:00N 45°10' E 012°52'1121.9
2019-Jul-13 20:30N 45°17' E 012°41'917.9
2019-Jul-13 20:00N 45°23' E 012°30'5 9.5
2019-Jul-13 19:30N 45°26' E 012°25'3 5.0
2019-Jul-13 19:00N 45°26' E 012°21'2 4.3
2019-Jul-13 18:31N 45°26' E 012°18'0 0.9
2019-Jul-13 17:58N 45°26' E 012°18'0 0.0
2019-Jul-13 17:28N 45°26' E 012°18'0 0.0
2019-Jul-13 16:58N 45°26' E 012°18'0 0.0
2019-Jul-13 16:28N 45°26' E 012°18'0 0.0
2019-Jul-13 15:58N 45°26' E 012°18'0 0.0
2019-Jul-13 15:28N 45°26' E 012°18'0 0.0
2019-Jul-13 14:58N 45°26' E 012°18'0 0.0
2019-Jul-13 14:28N 45°26' E 012°18'0 0.0
2019-Jul-13 13:58N 45°26' E 012°18'0 0.0
2019-Jul-13 13:25N 45°26' E 012°18'0 0.0
2019-Jul-13 12:58N 45°26' E 012°18'0 0.0
2019-Jul-13 12:28N 45°26' E 012°18'0 0.0
2019-Jul-13 11:58N 45°26' E 012°18'0 0.0
2019-Jul-13 11:28N 45°26' E 012°18'0 0.0
2019-Jul-13 10:58N 45°26' E 012°18'0 0.0
2019-Jul-13 10:28N 45°26' E 012°18'0 0.0
2019-Jul-13 09:55N 45°26' E 012°18'0 0.0
2019-Jul-13 09:28N 45°26' E 012°18'0 0.0
2019-Jul-13 08:55N 45°26' E 012°18'0 0.0
2019-Jul-13 08:28N 45°26' E 012°18'0 0.0
2019-Jul-13 07:58N 45°26' E 012°18'0 0.0
2019-Jul-13 07:28N 45°26' E 012°18'0 0.0
2019-Jul-13 06:58N 45°26' E 012°18'0 0.0
2019-Jul-13 06:28N 45°26' E 012°18'0 0.0
2019-Jul-13 05:58N 45°26' E 012°18'0 0.0
2019-Jul-13 05:28N 45°26' E 012°18'0 0.0
2019-Jul-13 04:58N 45°26' E 012°18'0 0.0
2019-Jul-13 04:28N 45°26' E 012°18'0 0.0
2019-Jul-13 03:58N 45°26' E 012°18'0 0.0
2019-Jul-13 03:28N 45°26' E 012°18'0 0.0
2019-Jul-13 02:58N 45°26' E 012°18'0 0.0
2019-Jul-13 02:30N 45°26' E 012°18'1 2.0
2019-Jul-13 02:00N 45°26' E 012°20'2 4.3
2019-Jul-13 01:30N 45°26' E 012°23'3 5.8
2019-Jul-13 01:00N 45°25' E 012°27'4 8.4
2019-Jul-13 00:30N 45°23' E 012°32'1 1.4
2019-Jul-13 00:00N 45°23' E 012°32'2 4.9
2019-Jul-12 23:31N 45°25' E 012°29'3 6.4
2019-Jul-12 23:00N 45°22' E 012°32'817.1
2019-Jul-12 22:31N 45°18' E 012°42'917.5
2019-Jul-12 22:01N 45°12' E 012°52'816.7
2019-Jul-12 21:31N 45°07' E 013°01'917.1
2019-Jul-12 21:01N 45°02' E 013°11'917.9
2019-Jul-12 20:31N 44°56' E 013°21'1019.7
2019-Jul-12 20:01N 44°48' E 013°29'1019.8
2019-Jul-12 19:31N 44°40' E 013°37'1019.9
2019-Jul-12 19:01N 44°32' E 013°45'1020.0
2019-Jul-12 18:31N 44°23' E 013°52'1020.0
2019-Jul-12 18:01N 44°15' E 013°59'1220.0
2019-Jul-12 17:24N 44°05' E 014°10'30319.6
2019-Jul-12 02:00N 40°12' E 018°30'30012.0 360 / 241014.9 5.4 24.0 24.0
2019-Jul-11 01:00N 36°18' E 022°30'3515.2 280 / 241008.8 5.4 26.0 24.0
2019-Jul-10 22:41N 36°23' E 023°13'3414.3
2019-Jul-10 20:18N 36°19' E 023°55'714.4
2019-Jul-10 19:50N 36°19' E 024°03'614.3
2019-Jul-10 19:26N 36°19' E 024°10'39 2.4
2019-Jul-10 03:00N 36°48' E 024°42'   280 / 121011.8 1.1 26.0 28.0

Dump ship's entire track history